sensor_id;sensor_type;location;lat;lon;timestamp;pressure;altitude;pressure_sealevel;temperature;humidity
77227;BME280;66234;47.642;19.144;2023-03-31T00:02:41;99946.81;;;8.98;89.42
77227;BME280;66234;47.642;19.144;2023-03-31T00:05:44;99942.50;;;8.97;90.09
77227;BME280;66234;47.642;19.144;2023-03-31T00:08:49;99941.06;;;8.94;90.13
77227;BME280;66234;47.642;19.144;2023-03-31T00:11:53;99936.13;;;8.91;90.22
77227;BME280;66234;47.642;19.144;2023-03-31T00:14:56;99925.47;;;8.91;90.59
77227;BME280;66234;47.642;19.144;2023-03-31T00:17:59;99929.78;;;8.92;91.01
77227;BME280;66234;47.642;19.144;2023-03-31T00:21:10;99923.22;;;8.82;91.19
77227;BME280;66234;47.642;19.144;2023-03-31T00:24:27;99915.41;;;8.80;91.01
77227;BME280;66234;47.642;19.144;2023-03-31T00:27:33;99906.41;;;8.81;91.08
77227;BME280;66234;47.642;19.144;2023-03-31T00:30:36;99901.91;;;8.75;91.33
77227;BME280;66234;47.642;19.144;2023-03-31T00:33:39;99899.00;;;8.64;91.21
77227;BME280;66234;47.642;19.144;2023-03-31T00:36:41;99908.63;;;8.52;91.60
77227;BME280;66234;47.642;19.144;2023-03-31T00:39:50;99903.88;;;8.41;91.83
77227;BME280;66234;47.642;19.144;2023-03-31T00:42:52;99899.75;;;8.31;92.28
77227;BME280;66234;47.642;19.144;2023-03-31T00:46:19;99898.47;;;8.21;93.23
77227;BME280;66234;47.642;19.144;2023-03-31T00:49:31;99897.59;;;8.14;93.24
77227;BME280;66234;47.642;19.144;2023-03-31T00:52:35;99895.94;;;8.06;93.75
77227;BME280;66234;47.642;19.144;2023-03-31T00:55:42;99900.28;;;8.07;93.71
77227;BME280;66234;47.642;19.144;2023-03-31T00:58:46;99886.16;;;8.13;93.99
77227;BME280;66234;47.642;19.144;2023-03-31T01:01:51;99882.91;;;8.18;93.89
77227;BME280;66234;47.642;19.144;2023-03-31T01:04:57;99863.22;;;8.19;93.97
77227;BME280;66234;47.642;19.144;2023-03-31T01:08:00;99868.81;;;8.24;93.72
77227;BME280;66234;47.642;19.144;2023-03-31T01:11:05;99879.38;;;8.11;93.53
77227;BME280;66234;47.642;19.144;2023-03-31T01:14:09;99867.50;;;8.07;93.18
77227;BME280;66234;47.642;19.144;2023-03-31T01:17:11;99878.75;;;8.02;93.36
77227;BME280;66234;47.642;19.144;2023-03-31T01:24:30;99876.09;;;8.02;93.76
77227;BME280;66234;47.642;19.144;2023-03-31T01:41:54;99873.91;;;7.78;94.51
77227;BME280;66234;47.642;19.144;2023-03-31T01:48:44;99867.53;;;7.66;94.21
77227;BME280;66234;47.642;19.144;2023-03-31T01:52:22;99875.47;;;7.53;93.85
77227;BME280;66234;47.642;19.144;2023-03-31T01:55:39;99881.53;;;7.47;94.21
77227;BME280;66234;47.642;19.144;2023-03-31T01:58:56;99870.28;;;7.45;94.67
77227;BME280;66234;47.642;19.144;2023-03-31T02:02:13;99883.00;;;7.50;94.85
77227;BME280;66234;47.642;19.144;2023-03-31T02:05:22;99868.91;;;8.03;96.19
77227;BME280;66234;47.642;19.144;2023-03-31T02:08:36;99882.13;;;8.24;95.51
77227;BME280;66234;47.642;19.144;2023-03-31T02:11:41;99877.91;;;8.69;93.42
77227;BME280;66234;47.642;19.144;2023-03-31T02:14:46;99876.69;;;8.84;92.22
77227;BME280;66234;47.642;19.144;2023-03-31T02:17:55;99874.44;;;8.88;92.17
77227;BME280;66234;47.642;19.144;2023-03-31T02:21:00;99882.41;;;9.01;91.02
77227;BME280;66234;47.642;19.144;2023-03-31T02:24:05;99878.91;;;9.13;90.16
77227;BME280;66234;47.642;19.144;2023-03-31T02:27:22;99872.97;;;9.11;89.69
77227;BME280;66234;47.642;19.144;2023-03-31T02:30:34;99858.81;;;9.17;89.01
77227;BME280;66234;47.642;19.144;2023-03-31T02:33:38;99858.81;;;9.17;88.51
77227;BME280;66234;47.642;19.144;2023-03-31T02:36:41;99852.03;;;9.21;88.26
77227;BME280;66234;47.642;19.144;2023-03-31T02:39:51;99852.03;;;9.21;88.05
77227;BME280;66234;47.642;19.144;2023-03-31T02:42:55;99841.34;;;9.28;87.41
77227;BME280;66234;47.642;19.144;2023-03-31T02:45:58;99844.03;;;9.21;87.97
77227;BME280;66234;47.642;19.144;2023-03-31T02:49:03;99844.44;;;9.18;87.53
77227;BME280;66234;47.642;19.144;2023-03-31T03:10:02;99838.53;;;8.90;88.10
77227;BME280;66234;47.642;19.144;2023-03-31T03:19:28;99847.34;;;8.65;88.86
77227;BME280;66234;47.642;19.144;2023-03-31T03:22:30;99845.69;;;8.64;88.68
77227;BME280;66234;47.642;19.144;2023-03-31T03:25:33;99851.03;;;8.64;88.40
77227;BME280;66234;47.642;19.144;2023-03-31T03:28:37;99855.53;;;8.70;88.60
77227;BME280;66234;47.642;19.144;2023-03-31T03:31:40;99867.03;;;8.70;88.45
77227;BME280;66234;47.642;19.144;2023-03-31T03:34:44;99863.75;;;8.75;87.98
77227;BME280;66234;47.642;19.144;2023-03-31T03:37:46;99865.16;;;8.77;87.46
77227;BME280;66234;47.642;19.144;2023-03-31T03:40:52;99871.13;;;8.66;87.73
77227;BME280;66234;47.642;19.144;2023-03-31T03:43:55;99870.69;;;8.50;88.75
77227;BME280;66234;47.642;19.144;2023-03-31T03:46:58;99873.75;;;8.33;89.32
77227;BME280;66234;47.642;19.144;2023-03-31T03:50:01;99869.97;;;8.21;90.57
77227;BME280;66234;47.642;19.144;2023-03-31T03:53:04;99866.16;;;8.30;90.52
77227;BME280;66234;47.642;19.144;2023-03-31T03:56:06;99858.41;;;8.55;88.48
77227;BME280;66234;47.642;19.144;2023-03-31T03:59:10;99862.09;;;8.67;87.62
77227;BME280;66234;47.642;19.144;2023-03-31T04:02:13;99860.66;;;8.78;87.35
77227;BME280;66234;47.642;19.144;2023-03-31T04:05:16;99866.41;;;8.94;86.31
77227;BME280;66234;47.642;19.144;2023-03-31T04:08:18;99863.16;;;8.92;86.36
77227;BME280;66234;47.642;19.144;2023-03-31T04:11:21;99872.34;;;8.90;85.94
77227;BME280;66234;47.642;19.144;2023-03-31T04:14:24;99866.44;;;8.88;85.95
77227;BME280;66234;47.642;19.144;2023-03-31T04:17:27;99862.53;;;8.97;85.23
77227;BME280;66234;47.642;19.144;2023-03-31T04:20:36;99845.69;;;8.96;85.51
77227;BME280;66234;47.642;19.144;2023-03-31T04:23:39;99841.41;;;8.82;85.64
77227;BME280;66234;47.642;19.144;2023-03-31T04:26:48;99834.81;;;8.59;86.64
77227;BME280;66234;47.642;19.144;2023-03-31T04:29:53;99842.00;;;8.45;87.35
77227;BME280;66234;47.642;19.144;2023-03-31T04:33:01;99848.78;;;8.48;87.17
77227;BME280;66234;47.642;19.144;2023-03-31T04:36:05;99837.28;;;8.27;87.48
77227;BME280;66234;47.642;19.144;2023-03-31T04:39:19;99846.63;;;8.10;87.78
77227;BME280;66234;47.642;19.144;2023-03-31T04:42:28;99836.28;;;7.88;88.79
77227;BME280;66234;47.642;19.144;2023-03-31T04:45:31;99839.69;;;7.62;89.66
77227;BME280;66234;47.642;19.144;2023-03-31T04:48:34;99838.34;;;7.39;90.67
77227;BME280;66234;47.642;19.144;2023-03-31T04:51:36;99841.28;;;7.23;92.21
77227;BME280;66234;47.642;19.144;2023-03-31T04:54:39;99840.84;;;7.13;91.76
77227;BME280;66234;47.642;19.144;2023-03-31T04:57:42;99843.50;;;7.13;92.50
77227;BME280;66234;47.642;19.144;2023-03-31T05:00:44;99839.38;;;7.10;92.94
77227;BME280;66234;47.642;19.144;2023-03-31T05:03:47;99840.19;;;7.11;92.85
77227;BME280;66234;47.642;19.144;2023-03-31T05:06:49;99837.75;;;7.09;93.04
77227;BME280;66234;47.642;19.144;2023-03-31T05:09:52;99839.19;;;7.12;92.90
77227;BME280;66234;47.642;19.144;2023-03-31T05:12:55;99834.31;;;7.15;93.39
77227;BME280;66234;47.642;19.144;2023-03-31T05:15:57;99843.09;;;7.16;93.47
77227;BME280;66234;47.642;19.144;2023-03-31T05:19:01;99846.81;;;7.21;94.03
77227;BME280;66234;47.642;19.144;2023-03-31T05:22:04;99831.50;;;7.23;93.54
77227;BME280;66234;47.642;19.144;2023-03-31T05:25:08;99825.19;;;7.31;94.18
77227;BME280;66234;47.642;19.144;2023-03-31T05:28:11;99830.56;;;7.37;93.83
77227;BME280;66234;47.642;19.144;2023-03-31T05:31:14;99827.97;;;7.57;93.86
77227;BME280;66234;47.642;19.144;2023-03-31T05:34:17;99831.78;;;7.82;93.26
77227;BME280;66234;47.642;19.144;2023-03-31T05:37:19;99825.28;;;8.04;92.52
77227;BME280;66234;47.642;19.144;2023-03-31T05:40:23;99825.72;;;8.20;91.97
77227;BME280;66234;47.642;19.144;2023-03-31T05:43:26;99836.25;;;8.35;91.46
77227;BME280;66234;47.642;19.144;2023-03-31T05:46:28;99840.78;;;8.41;91.81
77227;BME280;66234;47.642;19.144;2023-03-31T05:49:33;99825.81;;;8.53;91.44
77227;BME280;66234;47.642;19.144;2023-03-31T05:52:36;99825.63;;;8.68;91.03
77227;BME280;66234;47.642;19.144;2023-03-31T05:55:38;99824.78;;;8.87;90.26
77227;BME280;66234;47.642;19.144;2023-03-31T05:58:41;99822.09;;;9.06;89.85
77227;BME280;66234;47.642;19.144;2023-03-31T06:01:45;99820.66;;;9.23;88.25
77227;BME280;66234;47.642;19.144;2023-03-31T06:04:48;99818.13;;;9.35;88.42
77227;BME280;66234;47.642;19.144;2023-03-31T06:07:56;99806.59;;;9.54;86.24
77227;BME280;66234;47.642;19.144;2023-03-31T06:11:03;99812.03;;;9.78;84.71
77227;BME280;66234;47.642;19.144;2023-03-31T06:14:08;99812.97;;;9.97;83.57
77227;BME280;66234;47.642;19.144;2023-03-31T06:17:10;99813.09;;;10.15;82.84
77227;BME280;66234;47.642;19.144;2023-03-31T06:20:13;99809.09;;;10.31;82.68
77227;BME280;66234;47.642;19.144;2023-03-31T06:23:29;99813.03;;;10.53;79.64
77227;BME280;66234;47.642;19.144;2023-03-31T06:26:33;99803.84;;;10.73;78.65
77227;BME280;66234;47.642;19.144;2023-03-31T06:29:37;99805.81;;;10.84;77.34
77227;BME280;66234;47.642;19.144;2023-03-31T06:32:47;99807.69;;;11.02;76.72
77227;BME280;66234;47.642;19.144;2023-03-31T06:35:50;99808.56;;;11.14;75.89
77227;BME280;66234;47.642;19.144;2023-03-31T06:38:54;99808.84;;;11.30;75.92
77227;BME280;66234;47.642;19.144;2023-03-31T06:41:56;99807.13;;;11.36;75.34
77227;BME280;66234;47.642;19.144;2023-03-31T06:45:02;99803.63;;;11.35;75.30
77227;BME280;66234;47.642;19.144;2023-03-31T06:48:05;99806.06;;;11.37;75.91
77227;BME280;66234;47.642;19.144;2023-03-31T06:51:09;99799.75;;;11.31;75.63
77227;BME280;66234;47.642;19.144;2023-03-31T06:54:12;99791.06;;;11.36;75.42
77227;BME280;66234;47.642;19.144;2023-03-31T06:57:15;99788.53;;;11.41;74.65
77227;BME280;66234;47.642;19.144;2023-03-31T07:00:18;99791.38;;;11.46;75.24
77227;BME280;66234;47.642;19.144;2023-03-31T07:03:24;99791.72;;;11.49;74.51
77227;BME280;66234;47.642;19.144;2023-03-31T07:06:27;99791.16;;;11.47;75.27
77227;BME280;66234;47.642;19.144;2023-03-31T07:09:30;99798.72;;;11.69;73.82
77227;BME280;66234;47.642;19.144;2023-03-31T07:12:33;99799.03;;;11.79;74.71
77227;BME280;66234;47.642;19.144;2023-03-31T07:15:37;99791.25;;;11.89;72.97
77227;BME280;66234;47.642;19.144;2023-03-31T07:18:42;99790.88;;;12.03;72.56
77227;BME280;66234;47.642;19.144;2023-03-31T07:21:44;99793.25;;;12.23;71.99
77227;BME280;66234;47.642;19.144;2023-03-31T07:24:48;99787.34;;;12.32;71.43
77227;BME280;66234;47.642;19.144;2023-03-31T07:27:50;99783.56;;;12.51;71.54
77227;BME280;66234;47.642;19.144;2023-03-31T07:30:53;99780.41;;;12.66;69.98
77227;BME280;66234;47.642;19.144;2023-03-31T07:33:56;99776.78;;;12.72;69.47
77227;BME280;66234;47.642;19.144;2023-03-31T07:36:59;99770.88;;;12.93;68.22
77227;BME280;66234;47.642;19.144;2023-03-31T07:40:03;99776.72;;;13.13;67.53
77227;BME280;66234;47.642;19.144;2023-03-31T07:43:07;99768.88;;;13.23;65.73
77227;BME280;66234;47.642;19.144;2023-03-31T07:46:18;99771.06;;;13.38;65.10
77227;BME280;66234;47.642;19.144;2023-03-31T07:49:21;99766.97;;;13.58;64.67
77227;BME280;66234;47.642;19.144;2023-03-31T07:52:27;99769.44;;;13.76;65.00
77227;BME280;66234;47.642;19.144;2023-03-31T07:55:30;99757.91;;;13.92;63.03
77227;BME280;66234;47.642;19.144;2023-03-31T07:58:34;99759.34;;;14.11;62.47
77227;BME280;66234;47.642;19.144;2023-03-31T08:01:37;99750.41;;;14.22;61.89
77227;BME280;66234;47.642;19.144;2023-03-31T08:04:42;99738.72;;;14.28;61.01
77227;BME280;66234;47.642;19.144;2023-03-31T08:07:47;99738.41;;;14.41;60.07
77227;BME280;66234;47.642;19.144;2023-03-31T08:10:50;99730.59;;;14.56;60.33
77227;BME280;66234;47.642;19.144;2023-03-31T08:13:53;99731.22;;;14.63;59.86
77227;BME280;66234;47.642;19.144;2023-03-31T08:16:56;99724.56;;;14.66;58.91
77227;BME280;66234;47.642;19.144;2023-03-31T08:19:59;99722.75;;;14.88;58.69
77227;BME280;66234;47.642;19.144;2023-03-31T08:23:08;99714.38;;;15.06;58.28
77227;BME280;66234;47.642;19.144;2023-03-31T08:26:17;99712.91;;;14.99;58.92
77227;BME280;66234;47.642;19.144;2023-03-31T08:29:20;99716.41;;;14.99;58.96
77227;BME280;66234;47.642;19.144;2023-03-31T08:32:23;99702.44;;;15.02;59.51
77227;BME280;66234;47.642;19.144;2023-03-31T08:35:26;99707.53;;;14.99;59.35
77227;BME280;66234;47.642;19.144;2023-03-31T08:38:29;99690.31;;;15.00;59.34
77227;BME280;66234;47.642;19.144;2023-03-31T08:45:03;99685.75;;;15.00;58.30
77227;BME280;66234;47.642;19.144;2023-03-31T08:51:37;99669.66;;;15.05;57.92
77227;BME280;66234;47.642;19.144;2023-03-31T08:54:46;99661.59;;;15.05;58.50
77227;BME280;66234;47.642;19.144;2023-03-31T08:58:17;99658.00;;;15.00;61.73
77227;BME280;66234;47.642;19.144;2023-03-31T09:11:54;99645.09;;;15.23;60.77
77227;BME280;66234;47.642;19.144;2023-03-31T09:15:10;99646.63;;;15.14;59.21
77227;BME280;66234;47.642;19.144;2023-03-31T09:18:33;99630.81;;;15.23;62.91
77227;BME280;66234;47.642;19.144;2023-03-31T09:21:41;99628.13;;;15.44;61.19
77227;BME280;66234;47.642;19.144;2023-03-31T09:25:02;99624.13;;;15.47;59.19
77227;BME280;66234;47.642;19.144;2023-03-31T09:28:29;99613.03;;;15.70;58.17
77227;BME280;66234;47.642;19.144;2023-03-31T09:31:37;99609.66;;;15.84;57.80
77227;BME280;66234;47.642;19.144;2023-03-31T09:34:40;99607.94;;;16.05;56.64
77227;BME280;66234;47.642;19.144;2023-03-31T09:37:43;99609.44;;;16.22;56.91
77227;BME280;66234;47.642;19.144;2023-03-31T09:40:45;99609.56;;;16.42;56.37
77227;BME280;66234;47.642;19.144;2023-03-31T09:43:48;99585.41;;;16.58;56.84
77227;BME280;66234;47.642;19.144;2023-03-31T09:46:53;99596.69;;;16.50;57.32
77227;BME280;66234;47.642;19.144;2023-03-31T09:49:57;99593.69;;;16.46;55.87
77227;BME280;66234;47.642;19.144;2023-03-31T09:53:00;99589.44;;;16.55;54.48
77227;BME280;66234;47.642;19.144;2023-03-31T09:56:07;99582.97;;;16.56;56.12
77227;BME280;66234;47.642;19.144;2023-03-31T09:59:35;99571.44;;;16.76;55.35
77227;BME280;66234;47.642;19.144;2023-03-31T10:05:51;99572.47;;;16.65;56.29
77227;BME280;66234;47.642;19.144;2023-03-31T10:08:57;99556.69;;;16.98;55.74
77227;BME280;66234;47.642;19.144;2023-03-31T10:12:15;99542.59;;;16.81;54.21
77227;BME280;66234;47.642;19.144;2023-03-31T10:15:22;99538.84;;;16.97;54.80
77227;BME280;66234;47.642;19.144;2023-03-31T10:18:35;99536.22;;;17.12;54.16
77227;BME280;66234;47.642;19.144;2023-03-31T10:21:39;99527.56;;;17.15;54.82
77227;BME280;66234;47.642;19.144;2023-03-31T10:24:44;99525.75;;;17.61;53.85
77227;BME280;66234;47.642;19.144;2023-03-31T10:27:51;99522.75;;;17.57;53.44
77227;BME280;66234;47.642;19.144;2023-03-31T10:30:57;99516.28;;;17.88;54.37
77227;BME280;66234;47.642;19.144;2023-03-31T10:34:08;99510.00;;;18.18;54.38
77227;BME280;66234;47.642;19.144;2023-03-31T10:37:17;99503.50;;;18.39;52.49
77227;BME280;66234;47.642;19.144;2023-03-31T10:40:24;99494.28;;;18.30;51.84
77227;BME280;66234;47.642;19.144;2023-03-31T10:43:41;99500.78;;;18.29;50.53
77227;BME280;66234;47.642;19.144;2023-03-31T10:46:50;99500.22;;;18.32;51.79
77227;BME280;66234;47.642;19.144;2023-03-31T10:50:03;99493.72;;;18.48;50.78
77227;BME280;66234;47.642;19.144;2023-03-31T10:53:12;99501.22;;;18.66;50.75
77227;BME280;66234;47.642;19.144;2023-03-31T10:56:48;99486.84;;;18.71;50.42
77227;BME280;66234;47.642;19.144;2023-03-31T11:00:05;99479.25;;;18.78;49.04
77227;BME280;66234;47.642;19.144;2023-03-31T11:03:38;99472.47;;;19.19;47.80
77227;BME280;66234;47.642;19.144;2023-03-31T11:07:41;99479.28;;;19.16;48.08
77227;BME280;66234;47.642;19.144;2023-03-31T11:14:19;99482.75;;;19.22;46.46
77227;BME280;66234;47.642;19.144;2023-03-31T11:21:17;99475.28;;;19.76;42.84
77227;BME280;66234;47.642;19.144;2023-03-31T11:27:39;99456.06;;;19.73;43.24
77227;BME280;66234;47.642;19.144;2023-03-31T11:34:05;99436.28;;;19.96;41.46
77227;BME280;66234;47.642;19.144;2023-03-31T11:40:42;99416.75;;;19.41;43.90
77227;BME280;66234;47.642;19.144;2023-03-31T11:43:54;99406.84;;;19.27;44.80
77227;BME280;66234;47.642;19.144;2023-03-31T11:47:08;99398.44;;;19.23;43.83
77227;BME280;66234;47.642;19.144;2023-03-31T11:50:35;99393.84;;;18.90;44.32
77227;BME280;66234;47.642;19.144;2023-03-31T11:53:42;99376.00;;;19.18;44.33
77227;BME280;66234;47.642;19.144;2023-03-31T11:56:46;99378.66;;;19.56;44.38
77227;BME280;66234;47.642;19.144;2023-03-31T11:59:56;99384.00;;;19.90;41.85
77227;BME280;66234;47.642;19.144;2023-03-31T12:03:10;99376.25;;;19.79;40.46
77227;BME280;66234;47.642;19.144;2023-03-31T12:06:17;99365.53;;;20.16;41.44
77227;BME280;66234;47.642;19.144;2023-03-31T12:09:49;99361.09;;;20.01;41.48
77227;BME280;66234;47.642;19.144;2023-03-31T12:16:35;99346.59;;;20.11;41.99
77227;BME280;66234;47.642;19.144;2023-03-31T12:19:48;99338.88;;;20.60;42.35
77227;BME280;66234;47.642;19.144;2023-03-31T12:22:53;99330.72;;;20.41;43.04
77227;BME280;66234;47.642;19.144;2023-03-31T12:29:33;99334.28;;;19.95;44.43
77227;BME280;66234;47.642;19.144;2023-03-31T12:32:46;99341.16;;;19.87;43.46
77227;BME280;66234;47.642;19.144;2023-03-31T12:39:26;99311.03;;;19.89;44.52
77227;BME280;66234;47.642;19.144;2023-03-31T12:48:50;99304.88;;;20.25;43.42
77227;BME280;66234;47.642;19.144;2023-03-31T12:52:04;99298.72;;;22.07;40.12
77227;BME280;66234;47.642;19.144;2023-03-31T12:58:41;99269.34;;;22.98;37.64
77227;BME280;66234;47.642;19.144;2023-03-31T13:08:49;99253.38;;;21.62;41.93
77227;BME280;66234;47.642;19.144;2023-03-31T13:11:52;99255.47;;;21.38;42.02
77227;BME280;66234;47.642;19.144;2023-03-31T13:14:56;99252.28;;;22.26;40.15
77227;BME280;66234;47.642;19.144;2023-03-31T13:18:04;99243.09;;;20.86;43.01
77227;BME280;66234;47.642;19.144;2023-03-31T13:21:08;99233.09;;;21.14;40.85
77227;BME280;66234;47.642;19.144;2023-03-31T13:24:13;99230.00;;;21.48;40.38
77227;BME280;66234;47.642;19.144;2023-03-31T13:27:33;99227.03;;;21.98;39.48
77227;BME280;66234;47.642;19.144;2023-03-31T13:33:56;99200.31;;;20.46;43.75
77227;BME280;66234;47.642;19.144;2023-03-31T13:40:53;99194.28;;;19.33;46.96
77227;BME280;66234;47.642;19.144;2023-03-31T13:44:15;99184.03;;;19.30;47.45
77227;BME280;66234;47.642;19.144;2023-03-31T14:07:58;99138.50;;;19.03;47.04
77227;BME280;66234;47.642;19.144;2023-03-31T14:14:23;99137.84;;;18.64;47.34
77227;BME280;66234;47.642;19.144;2023-03-31T14:17:35;99137.03;;;18.30;48.51
77227;BME280;66234;47.642;19.144;2023-03-31T14:21:20;99125.88;;;18.08;49.59
77227;BME280;66234;47.642;19.144;2023-03-31T14:24:29;99131.88;;;18.05;49.88
77227;BME280;66234;47.642;19.144;2023-03-31T14:31:03;99098.28;;;18.68;46.35
77227;BME280;66234;47.642;19.144;2023-03-31T14:34:38;99078.72;;;20.57;42.37
77227;BME280;66234;47.642;19.144;2023-03-31T14:37:44;99082.75;;;21.27;39.77
77227;BME280;66234;47.642;19.144;2023-03-31T14:40:52;99080.53;;;22.00;38.67
77227;BME280;66234;47.642;19.144;2023-03-31T14:44:05;99071.13;;;22.28;38.08
77227;BME280;66234;47.642;19.144;2023-03-31T14:47:19;99056.22;;;22.96;36.02
77227;BME280;66234;47.642;19.144;2023-03-31T14:50:32;99055.19;;;22.44;36.52
77227;BME280;66234;47.642;19.144;2023-03-31T14:53:35;99040.94;;;22.47;35.87
77227;BME280;66234;47.642;19.144;2023-03-31T14:56:38;99040.84;;;22.30;36.30
77227;BME280;66234;47.642;19.144;2023-03-31T14:59:43;99049.84;;;21.86;36.65
77227;BME280;66234;47.642;19.144;2023-03-31T15:02:48;99043.28;;;21.65;37.67
77227;BME280;66234;47.642;19.144;2023-03-31T15:05:55;99038.34;;;21.54;37.40
77227;BME280;66234;47.642;19.144;2023-03-31T15:09:02;99036.84;;;22.27;35.75
77227;BME280;66234;47.642;19.144;2023-03-31T15:12:12;99037.38;;;21.50;36.68
77227;BME280;66234;47.642;19.144;2023-03-31T15:15:17;99039.38;;;20.95;38.24
77227;BME280;66234;47.642;19.144;2023-03-31T15:18:21;99033.59;;;21.37;36.96
77227;BME280;66234;47.642;19.144;2023-03-31T15:21:30;99031.66;;;21.73;36.34
77227;BME280;66234;47.642;19.144;2023-03-31T15:24:33;99032.72;;;20.87;38.13
77227;BME280;66234;47.642;19.144;2023-03-31T15:27:46;99029.53;;;20.45;39.62
77227;BME280;66234;47.642;19.144;2023-03-31T15:30:51;99023.84;;;19.96;40.94
77227;BME280;66234;47.642;19.144;2023-03-31T15:34:18;99025.59;;;19.17;43.22
77227;BME280;66234;47.642;19.144;2023-03-31T15:37:26;99013.81;;;18.66;44.57
77227;BME280;66234;47.642;19.144;2023-03-31T15:40:38;98999.56;;;18.32;45.75
77227;BME280;66234;47.642;19.144;2023-03-31T15:44:26;98994.69;;;18.05;46.60
77227;BME280;66234;47.642;19.144;2023-03-31T15:47:28;98990.53;;;17.89;46.73
77227;BME280;66234;47.642;19.144;2023-03-31T15:50:32;98987.38;;;17.77;47.13
77227;BME280;66234;47.642;19.144;2023-03-31T15:53:37;98973.69;;;17.69;47.37
77227;BME280;66234;47.642;19.144;2023-03-31T15:56:44;98969.41;;;17.63;47.62
77227;BME280;66234;47.642;19.144;2023-03-31T15:59:49;98967.13;;;17.46;48.32
77227;BME280;66234;47.642;19.144;2023-03-31T16:02:59;98971.19;;;17.39;48.34
77227;BME280;66234;47.642;19.144;2023-03-31T16:06:23;98967.75;;;17.28;48.91
77227;BME280;66234;47.642;19.144;2023-03-31T16:09:41;98976.16;;;17.22;49.02
77227;BME280;66234;47.642;19.144;2023-03-31T16:12:58;98968.69;;;17.14;49.60
77227;BME280;66234;47.642;19.144;2023-03-31T16:16:08;98973.56;;;17.12;50.22
77227;BME280;66234;47.642;19.144;2023-03-31T16:19:11;98984.09;;;17.08;50.40
77227;BME280;66234;47.642;19.144;2023-03-31T16:22:20;98992.22;;;17.03;49.87
77227;BME280;66234;47.642;19.144;2023-03-31T16:25:29;98986.06;;;16.93;50.10
77227;BME280;66234;47.642;19.144;2023-03-31T16:28:35;98992.88;;;16.85;50.74
77227;BME280;66234;47.642;19.144;2023-03-31T16:31:39;98988.38;;;16.71;50.83
77227;BME280;66234;47.642;19.144;2023-03-31T16:35:02;98996.50;;;16.56;50.55
77227;BME280;66234;47.642;19.144;2023-03-31T16:38:07;99001.69;;;16.47;50.69
77227;BME280;66234;47.642;19.144;2023-03-31T16:41:10;99010.31;;;16.34;51.41
77227;BME280;66234;47.642;19.144;2023-03-31T16:44:13;99016.03;;;16.22;51.37
77227;BME280;66234;47.642;19.144;2023-03-31T16:47:16;99028.97;;;16.15;50.73
77227;BME280;66234;47.642;19.144;2023-03-31T16:50:35;99024.94;;;16.08;50.59
77227;BME280;66234;47.642;19.144;2023-03-31T16:53:38;99028.72;;;16.02;51.01
77227;BME280;66234;47.642;19.144;2023-03-31T16:56:41;99026.56;;;15.94;51.51
77227;BME280;66234;47.642;19.144;2023-03-31T16:59:44;99033.03;;;15.88;51.72
77227;BME280;66234;47.642;19.144;2023-03-31T17:02:47;99032.78;;;15.79;52.67
77227;BME280;66234;47.642;19.144;2023-03-31T17:05:52;99027.94;;;15.66;53.70
77227;BME280;66234;47.642;19.144;2023-03-31T17:08:58;99024.94;;;15.58;54.16
77227;BME280;66234;47.642;19.144;2023-03-31T17:12:03;99017.69;;;15.48;54.79
77227;BME280;66234;47.642;19.144;2023-03-31T17:15:06;99014.44;;;15.41;55.04
77227;BME280;66234;47.642;19.144;2023-03-31T17:18:09;99012.50;;;15.32;55.73
77227;BME280;66234;47.642;19.144;2023-03-31T17:21:14;99014.41;;;15.26;56.11
77227;BME280;66234;47.642;19.144;2023-03-31T17:24:18;99010.09;;;15.20;55.94
77227;BME280;66234;47.642;19.144;2023-03-31T17:27:20;99007.38;;;15.15;56.15
77227;BME280;66234;47.642;19.144;2023-03-31T17:30:23;99021.09;;;15.09;56.63
77227;BME280;66234;47.642;19.144;2023-03-31T17:33:25;99005.72;;;15.04;56.77
77227;BME280;66234;47.642;19.144;2023-03-31T17:36:29;99007.06;;;14.97;57.12
77227;BME280;66234;47.642;19.144;2023-03-31T17:39:32;99003.03;;;14.94;57.18
77227;BME280;66234;47.642;19.144;2023-03-31T17:42:34;99009.47;;;14.88;57.67
77227;BME280;66234;47.642;19.144;2023-03-31T17:45:38;99004.34;;;14.87;57.79
77227;BME280;66234;47.642;19.144;2023-03-31T17:48:42;99006.22;;;14.86;57.61
77227;BME280;66234;47.642;19.144;2023-03-31T17:51:44;99002.97;;;14.84;58.02
77227;BME280;66234;47.642;19.144;2023-03-31T17:54:47;99002.16;;;14.78;58.92
77227;BME280;66234;47.642;19.144;2023-03-31T17:57:52;99004.56;;;14.75;58.60
77227;BME280;66234;47.642;19.144;2023-03-31T18:00:54;99007.53;;;14.73;59.41
77227;BME280;66234;47.642;19.144;2023-03-31T18:03:58;99007.25;;;14.70;59.86
77227;BME280;66234;47.642;19.144;2023-03-31T18:07:01;99007.22;;;14.65;59.83
77227;BME280;66234;47.642;19.144;2023-03-31T18:10:04;99012.59;;;14.65;59.85
77227;BME280;66234;47.642;19.144;2023-03-31T18:13:07;99020.66;;;14.60;59.61
77227;BME280;66234;47.642;19.144;2023-03-31T18:16:11;99033.56;;;14.58;60.73
77227;BME280;66234;47.642;19.144;2023-03-31T18:19:15;99019.28;;;14.52;60.66
77227;BME280;66234;47.642;19.144;2023-03-31T18:22:18;99006.59;;;14.48;60.70
77227;BME280;66234;47.642;19.144;2023-03-31T18:25:20;99001.75;;;14.45;60.93
77227;BME280;66234;47.642;19.144;2023-03-31T18:28:23;98998.00;;;14.46;61.13
77227;BME280;66234;47.642;19.144;2023-03-31T18:31:26;98998.50;;;14.38;61.60
77227;BME280;66234;47.642;19.144;2023-03-31T18:34:29;99014.38;;;14.39;61.18
77227;BME280;66234;47.642;19.144;2023-03-31T18:37:32;99023.78;;;14.37;61.38
77227;BME280;66234;47.642;19.144;2023-03-31T18:40:35;99021.09;;;14.37;61.30
77227;BME280;66234;47.642;19.144;2023-03-31T18:43:39;99029.69;;;14.34;61.68
77227;BME280;66234;47.642;19.144;2023-03-31T18:46:43;99043.88;;;14.29;62.05
77227;BME280;66234;47.642;19.144;2023-03-31T18:49:46;99045.47;;;14.25;62.43